Terminal Aerodrome Forecast
Issued by NWS

Current Version | Previous Version | Graphics & Text | Print | Product List | Glossary On
Versions: 1 2 3 4 5 6 7 8 9 10 11 12 13 14 15 16 17 18 19 20 21 22
000
FTUS41 KPBZ 292113 AAA
TAFHLG
TAF AMD
KHLG 292113Z 2921/3018 10008KT P6SM -SHRA BKN040
      TEMPO 2921/2923 3SM SHRA BKN030
     FM300300 13008KT P6SM -SHRA SCT020 BKN040
     FM300800 17004KT P6SM BKN015
     FM301400 21010KT P6SM BKN025=

USA.gov is the U.S. government's official web portal to all federal, state and local government web resources and services.